sensor_id;sensor_type;location;lat;lon;timestamp;P1;durP1;ratioP1;P2;durP2;ratioP2
16270;SDS011;8243;49.048;8.396;2023-07-22T00:00:00;3.70;;;3.40;;
16270;SDS011;8243;49.048;8.396;2023-07-22T00:02:43;3.30;;;3.10;;
16270;SDS011;8243;49.048;8.396;2023-07-22T00:05:09;3.30;;;3.00;;
16270;SDS011;8243;49.048;8.396;2023-07-22T00:07:35;3.93;;;3.57;;
16270;SDS011;8243;49.048;8.396;2023-07-22T00:10:15;3.67;;;3.37;;
16270;SDS011;8243;49.048;8.396;2023-07-22T00:12:41;3.20;;;3.00;;
16270;SDS011;8243;49.048;8.396;2023-07-22T00:15:07;3.50;;;3.20;;
16270;SDS011;8243;49.048;8.396;2023-07-22T00:17:36;3.50;;;3.27;;
16270;SDS011;8243;49.048;8.396;2023-07-22T00:20:02;3.50;;;3.20;;
16270;SDS011;8243;49.048;8.396;2023-07-22T00:22:39;3.13;;;2.93;;
16270;SDS011;8243;49.048;8.396;2023-07-22T00:25:11;4.37;;;3.10;;
16270;SDS011;8243;49.048;8.396;2023-07-22T00:27:38;4.67;;;3.10;;
16270;SDS011;8243;49.048;8.396;2023-07-22T00:30:20;3.87;;;3.37;;
16270;SDS011;8243;49.048;8.396;2023-07-22T00:32:45;3.40;;;3.10;;
16270;SDS011;8243;49.048;8.396;2023-07-22T00:35:23;3.40;;;3.10;;
16270;SDS011;8243;49.048;8.396;2023-07-22T00:37:49;3.43;;;3.17;;
16270;SDS011;8243;49.048;8.396;2023-07-22T00:40:15;3.60;;;3.30;;
16270;SDS011;8243;49.048;8.396;2023-07-22T00:45:31;6.30;;;3.47;;
16270;SDS011;8243;49.048;8.396;2023-07-22T00:47:58;3.63;;;3.33;;
16270;SDS011;8243;49.048;8.396;2023-07-22T00:52:54;3.60;;;3.30;;
16270;SDS011;8243;49.048;8.396;2023-07-22T00:55:20;5.27;;;3.30;;
16270;SDS011;8243;49.048;8.396;2023-07-22T01:00:36;3.87;;;3.47;;
16270;SDS011;8243;49.048;8.396;2023-07-22T01:03:12;3.90;;;3.40;;
16270;SDS011;8243;49.048;8.396;2023-07-22T01:05:39;3.20;;;3.00;;
16270;SDS011;8243;49.048;8.396;2023-07-22T01:08:06;3.70;;;3.40;;
16270;SDS011;8243;49.048;8.396;2023-07-22T01:10:40;3.50;;;3.20;;
16270;SDS011;8243;49.048;8.396;2023-07-22T01:13:05;3.90;;;3.50;;
16270;SDS011;8243;49.048;8.396;2023-07-22T01:15:32;3.40;;;3.10;;
16270;SDS011;8243;49.048;8.396;2023-07-22T01:17:58;3.20;;;3.00;;
16270;SDS011;8243;49.048;8.396;2023-07-22T01:20:27;3.60;;;3.30;;
16270;SDS011;8243;49.048;8.396;2023-07-22T01:22:54;4.27;;;3.10;;
16270;SDS011;8243;49.048;8.396;2023-07-22T01:25:20;3.60;;;3.30;;
16270;SDS011;8243;49.048;8.396;2023-07-22T01:27:47;4.43;;;3.57;;
16270;SDS011;8243;49.048;8.396;2023-07-22T01:30:14;3.93;;;3.57;;
16270;SDS011;8243;49.048;8.396;2023-07-22T01:35:30;4.90;;;3.47;;
16270;SDS011;8243;49.048;8.396;2023-07-22T01:37:55;3.70;;;3.40;;
16270;SDS011;8243;49.048;8.396;2023-07-22T01:40:25;3.80;;;3.50;;
16270;SDS011;8243;49.048;8.396;2023-07-22T01:42:51;3.57;;;3.27;;
16270;SDS011;8243;49.048;8.396;2023-07-22T01:45:16;4.47;;;3.23;;
16270;SDS011;8243;49.048;8.396;2023-07-22T01:47:42;4.83;;;3.87;;
16270;SDS011;8243;49.048;8.396;2023-07-22T01:50:25;4.43;;;4.03;;
16270;SDS011;8243;49.048;8.396;2023-07-22T01:52:51;4.90;;;3.70;;
16270;SDS011;8243;49.048;8.396;2023-07-22T01:55:18;3.93;;;3.47;;
16270;SDS011;8243;49.048;8.396;2023-07-22T01:57:44;4.03;;;3.60;;
16270;SDS011;8243;49.048;8.396;2023-07-22T02:00:09;3.77;;;3.47;;
16270;SDS011;8243;49.048;8.396;2023-07-22T02:02:40;4.20;;;3.37;;
16270;SDS011;8243;49.048;8.396;2023-07-22T02:05:06;3.87;;;3.10;;
16270;SDS011;8243;49.048;8.396;2023-07-22T02:07:33;3.83;;;3.50;;
16270;SDS011;8243;49.048;8.396;2023-07-22T02:09:59;3.40;;;3.00;;
16270;SDS011;8243;49.048;8.396;2023-07-22T02:12:24;3.73;;;3.23;;
16270;SDS011;8243;49.048;8.396;2023-07-22T02:14:50;3.80;;;3.40;;
16270;SDS011;8243;49.048;8.396;2023-07-22T02:17:15;4.80;;;3.50;;
16270;SDS011;8243;49.048;8.396;2023-07-22T02:19:41;3.33;;;3.03;;
16270;SDS011;8243;49.048;8.396;2023-07-22T02:22:06;4.00;;;3.60;;
16270;SDS011;8243;49.048;8.396;2023-07-22T02:24:32;4.00;;;3.40;;
16270;SDS011;8243;49.048;8.396;2023-07-22T02:26:58;3.40;;;3.10;;
16270;SDS011;8243;49.048;8.396;2023-07-22T02:29:24;4.23;;;3.37;;
16270;SDS011;8243;49.048;8.396;2023-07-22T02:31:49;4.00;;;3.60;;
16270;SDS011;8243;49.048;8.396;2023-07-22T02:34:15;3.87;;;3.47;;
16270;SDS011;8243;49.048;8.396;2023-07-22T02:36:41;4.20;;;3.80;;
16270;SDS011;8243;49.048;8.396;2023-07-22T02:39:07;4.93;;;3.57;;
16270;SDS011;8243;49.048;8.396;2023-07-22T02:41:34;3.93;;;3.53;;
16270;SDS011;8243;49.048;8.396;2023-07-22T02:44:03;4.23;;;3.80;;
16270;SDS011;8243;49.048;8.396;2023-07-22T02:46:28;4.20;;;3.80;;
16270;SDS011;8243;49.048;8.396;2023-07-22T02:48:54;3.60;;;3.30;;
16270;SDS011;8243;49.048;8.396;2023-07-22T02:51:20;4.50;;;4.10;;
16270;SDS011;8243;49.048;8.396;2023-07-22T02:53:45;4.33;;;3.93;;
16270;SDS011;8243;49.048;8.396;2023-07-22T02:56:12;4.33;;;3.80;;
16270;SDS011;8243;49.048;8.396;2023-07-22T02:58:39;4.07;;;3.67;;
16270;SDS011;8243;49.048;8.396;2023-07-22T03:01:08;4.17;;;3.87;;
16270;SDS011;8243;49.048;8.396;2023-07-22T03:03:35;4.40;;;4.00;;
16270;SDS011;8243;49.048;8.396;2023-07-22T03:06:01;4.00;;;3.70;;
16270;SDS011;8243;49.048;8.396;2023-07-22T03:08:28;5.43;;;3.80;;
16270;SDS011;8243;49.048;8.396;2023-07-22T03:10:54;3.83;;;3.53;;
16270;SDS011;8243;49.048;8.396;2023-07-22T03:13:20;4.60;;;4.20;;
16270;SDS011;8243;49.048;8.396;2023-07-22T03:15:45;4.27;;;3.97;;
16270;SDS011;8243;49.048;8.396;2023-07-22T03:18:11;4.27;;;3.97;;
16270;SDS011;8243;49.048;8.396;2023-07-22T03:20:37;3.87;;;3.40;;
16270;SDS011;8243;49.048;8.396;2023-07-22T03:23:03;4.43;;;4.03;;
16270;SDS011;8243;49.048;8.396;2023-07-22T03:25:29;4.40;;;4.00;;
16270;SDS011;8243;49.048;8.396;2023-07-22T03:27:55;4.47;;;4.07;;
16270;SDS011;8243;49.048;8.396;2023-07-22T03:30:21;4.77;;;4.33;;
16270;SDS011;8243;49.048;8.396;2023-07-22T03:32:48;4.93;;;3.77;;
16270;SDS011;8243;49.048;8.396;2023-07-22T03:35:15;6.10;;;3.80;;
16270;SDS011;8243;49.048;8.396;2023-07-22T03:37:42;4.40;;;4.00;;
16270;SDS011;8243;49.048;8.396;2023-07-22T03:40:08;4.20;;;3.80;;
16270;SDS011;8243;49.048;8.396;2023-07-22T03:42:39;3.80;;;3.40;;
16270;SDS011;8243;49.048;8.396;2023-07-22T03:45:06;3.87;;;3.50;;
16270;SDS011;8243;49.048;8.396;2023-07-22T03:47:34;4.10;;;3.80;;
16270;SDS011;8243;49.048;8.396;2023-07-22T03:50:00;4.03;;;3.73;;
16270;SDS011;8243;49.048;8.396;2023-07-22T03:52:26;3.97;;;3.60;;
16270;SDS011;8243;49.048;8.396;2023-07-22T03:54:52;5.27;;;3.70;;
16270;SDS011;8243;49.048;8.396;2023-07-22T03:57:17;7.57;;;4.43;;
16270;SDS011;8243;49.048;8.396;2023-07-22T03:59:43;4.37;;;3.97;;
16270;SDS011;8243;49.048;8.396;2023-07-22T04:02:08;4.23;;;3.83;;
16270;SDS011;8243;49.048;8.396;2023-07-22T04:04:34;5.73;;;3.80;;
16270;SDS011;8243;49.048;8.396;2023-07-22T04:06:59;4.07;;;3.70;;
16270;SDS011;8243;49.048;8.396;2023-07-22T04:09:27;4.37;;;3.90;;
16270;SDS011;8243;49.048;8.396;2023-07-22T04:11:52;4.90;;;3.90;;
16270;SDS011;8243;49.048;8.396;2023-07-22T04:14:18;5.63;;;4.20;;
16270;SDS011;8243;49.048;8.396;2023-07-22T04:16:43;4.10;;;3.80;;
16270;SDS011;8243;49.048;8.396;2023-07-22T04:19:09;3.60;;;3.30;;
16270;SDS011;8243;49.048;8.396;2023-07-22T04:21:35;5.27;;;4.23;;
16270;SDS011;8243;49.048;8.396;2023-07-22T04:24:00;4.60;;;4.17;;
16270;SDS011;8243;49.048;8.396;2023-07-22T04:26:26;5.00;;;4.53;;
16270;SDS011;8243;49.048;8.396;2023-07-22T04:28:51;3.93;;;3.63;;
16270;SDS011;8243;49.048;8.396;2023-07-22T04:31:17;5.33;;;3.53;;
16270;SDS011;8243;49.048;8.396;2023-07-22T04:33:43;3.50;;;3.30;;
16270;SDS011;8243;49.048;8.396;2023-07-22T04:36:09;3.03;;;2.73;;
16270;SDS011;8243;49.048;8.396;2023-07-22T04:38:35;3.30;;;3.00;;
16270;SDS011;8243;49.048;8.396;2023-07-22T04:41:02;3.00;;;2.67;;
16270;SDS011;8243;49.048;8.396;2023-07-22T04:43:28;3.33;;;3.03;;
16270;SDS011;8243;49.048;8.396;2023-07-22T04:45:56;3.50;;;3.20;;
16270;SDS011;8243;49.048;8.396;2023-07-22T04:48:21;3.50;;;3.20;;
16270;SDS011;8243;49.048;8.396;2023-07-22T04:50:48;3.97;;;3.23;;
16270;SDS011;8243;49.048;8.396;2023-07-22T04:53:14;3.40;;;3.10;;
16270;SDS011;8243;49.048;8.396;2023-07-22T04:55:48;3.53;;;3.23;;
16270;SDS011;8243;49.048;8.396;2023-07-22T04:58:14;4.73;;;3.17;;
16270;SDS011;8243;49.048;8.396;2023-07-22T05:00:39;3.10;;;2.80;;
16270;SDS011;8243;49.048;8.396;2023-07-22T05:03:07;4.20;;;3.30;;
16270;SDS011;8243;49.048;8.396;2023-07-22T05:05:33;4.17;;;3.53;;
16270;SDS011;8243;49.048;8.396;2023-07-22T05:07:58;4.83;;;3.40;;
16270;SDS011;8243;49.048;8.396;2023-07-22T05:10:24;2.90;;;2.70;;
16270;SDS011;8243;49.048;8.396;2023-07-22T05:12:49;3.47;;;3.10;;
16270;SDS011;8243;49.048;8.396;2023-07-22T05:15:15;3.40;;;3.00;;
16270;SDS011;8243;49.048;8.396;2023-07-22T05:17:40;4.13;;;2.73;;
16270;SDS011;8243;49.048;8.396;2023-07-22T05:20:06;3.27;;;2.97;;
16270;SDS011;8243;49.048;8.396;2023-07-22T05:22:36;3.77;;;2.97;;
16270;SDS011;8243;49.048;8.396;2023-07-22T05:25:03;4.07;;;3.17;;
16270;SDS011;8243;49.048;8.396;2023-07-22T05:27:29;6.80;;;2.80;;
16270;SDS011;8243;49.048;8.396;2023-07-22T05:29:55;6.57;;;2.80;;
16270;SDS011;8243;49.048;8.396;2023-07-22T05:32:21;2.73;;;2.53;;
16270;SDS011;8243;49.048;8.396;2023-07-22T05:34:47;3.77;;;3.07;;
16270;SDS011;8243;49.048;8.396;2023-07-22T05:37:13;4.40;;;2.93;;
16270;SDS011;8243;49.048;8.396;2023-07-22T05:39:38;4.87;;;3.60;;
16270;SDS011;8243;49.048;8.396;2023-07-22T05:42:04;4.10;;;3.50;;
16270;SDS011;8243;49.048;8.396;2023-07-22T05:44:30;3.63;;;3.20;;
16270;SDS011;8243;49.048;8.396;2023-07-22T05:46:55;5.37;;;3.50;;
16270;SDS011;8243;49.048;8.396;2023-07-22T05:49:21;6.77;;;3.83;;
16270;SDS011;8243;49.048;8.396;2023-07-22T05:51:46;4.73;;;3.40;;
16270;SDS011;8243;49.048;8.396;2023-07-22T05:54:12;4.30;;;3.10;;
16270;SDS011;8243;49.048;8.396;2023-07-22T05:56:39;4.13;;;3.50;;
16270;SDS011;8243;49.048;8.396;2023-07-22T05:59:04;4.37;;;3.20;;
16270;SDS011;8243;49.048;8.396;2023-07-22T06:01:30;4.03;;;3.47;;
16270;SDS011;8243;49.048;8.396;2023-07-22T06:03:56;7.90;;;3.30;;
16270;SDS011;8243;49.048;8.396;2023-07-22T06:06:21;4.33;;;3.20;;
16270;SDS011;8243;49.048;8.396;2023-07-22T06:08:47;3.77;;;3.07;;
16270;SDS011;8243;49.048;8.396;2023-07-22T06:11:12;4.03;;;2.97;;
16270;SDS011;8243;49.048;8.396;2023-07-22T06:13:38;5.40;;;3.07;;
16270;SDS011;8243;49.048;8.396;2023-07-22T06:16:03;5.27;;;2.87;;
16270;SDS011;8243;49.048;8.396;2023-07-22T06:18:30;3.73;;;3.17;;
16270;SDS011;8243;49.048;8.396;2023-07-22T06:20:56;3.30;;;3.00;;
16270;SDS011;8243;49.048;8.396;2023-07-22T06:23:21;4.53;;;3.40;;
16270;SDS011;8243;49.048;8.396;2023-07-22T06:25:47;4.33;;;3.10;;
16270;SDS011;8243;49.048;8.396;2023-07-22T06:28:12;4.77;;;3.43;;
16270;SDS011;8243;49.048;8.396;2023-07-22T06:30:38;4.10;;;2.90;;
16270;SDS011;8243;49.048;8.396;2023-07-22T06:33:03;3.30;;;2.93;;
16270;SDS011;8243;49.048;8.396;2023-07-22T06:35:29;3.73;;;2.67;;
16270;SDS011;8243;49.048;8.396;2023-07-22T06:37:54;3.17;;;2.50;;
16270;SDS011;8243;49.048;8.396;2023-07-22T06:40:20;3.23;;;2.77;;
16270;SDS011;8243;49.048;8.396;2023-07-22T06:42:47;3.63;;;2.40;;
16270;SDS011;8243;49.048;8.396;2023-07-22T06:45:13;3.87;;;2.70;;
16270;SDS011;8243;49.048;8.396;2023-07-22T06:47:38;4.47;;;2.70;;
16270;SDS011;8243;49.048;8.396;2023-07-22T06:50:04;3.33;;;2.60;;
16270;SDS011;8243;49.048;8.396;2023-07-22T06:52:30;2.87;;;2.47;;
16270;SDS011;8243;49.048;8.396;2023-07-22T06:54:56;3.40;;;2.73;;
16270;SDS011;8243;49.048;8.396;2023-07-22T06:57:22;2.50;;;2.30;;
16270;SDS011;8243;49.048;8.396;2023-07-22T06:59:48;4.30;;;2.67;;
16270;SDS011;8243;49.048;8.396;2023-07-22T07:02:15;9.13;;;2.50;;
16270;SDS011;8243;49.048;8.396;2023-07-22T07:04:43;2.70;;;2.50;;
16270;SDS011;8243;49.048;8.396;2023-07-22T07:07:09;3.10;;;2.80;;
16270;SDS011;8243;49.048;8.396;2023-07-22T07:09:47;3.00;;;2.23;;
16270;SDS011;8243;49.048;8.396;2023-07-22T07:12:25;3.17;;;2.63;;
16270;SDS011;8243;49.048;8.396;2023-07-22T07:14:58;4.13;;;2.37;;
16270;SDS011;8243;49.048;8.396;2023-07-22T07:17:25;3.67;;;2.67;;
16270;SDS011;8243;49.048;8.396;2023-07-22T07:22:33;2.53;;;2.30;;
16270;SDS011;8243;49.048;8.396;2023-07-22T07:24:59;4.57;;;2.33;;
16270;SDS011;8243;49.048;8.396;2023-07-22T07:27:24;3.57;;;2.53;;
16270;SDS011;8243;49.048;8.396;2023-07-22T07:29:52;3.50;;;2.30;;
16270;SDS011;8243;49.048;8.396;2023-07-22T07:32:17;2.57;;;2.20;;
16270;SDS011;8243;49.048;8.396;2023-07-22T07:34:43;7.93;;;2.30;;
16270;SDS011;8243;49.048;8.396;2023-07-22T07:37:08;4.03;;;3.23;;
16270;SDS011;8243;49.048;8.396;2023-07-22T07:39:34;4.13;;;2.00;;
16270;SDS011;8243;49.048;8.396;2023-07-22T07:41:59;8.83;;;5.60;;
16270;SDS011;8243;49.048;8.396;2023-07-22T07:44:25;2.97;;;2.30;;
16270;SDS011;8243;49.048;8.396;2023-07-22T07:46:50;2.70;;;2.50;;
16270;SDS011;8243;49.048;8.396;2023-07-22T07:49:17;4.03;;;2.50;;
16270;SDS011;8243;49.048;8.396;2023-07-22T07:51:42;4.70;;;3.07;;
16270;SDS011;8243;49.048;8.396;2023-07-22T07:54:08;5.50;;;3.97;;
16270;SDS011;8243;49.048;8.396;2023-07-22T07:56:33;7.33;;;4.00;;
16270;SDS011;8243;49.048;8.396;2023-07-22T07:58:59;5.73;;;4.40;;
16270;SDS011;8243;49.048;8.396;2023-07-22T08:01:31;6.97;;;5.47;;
16270;SDS011;8243;49.048;8.396;2023-07-22T08:03:57;4.13;;;3.73;;
16270;SDS011;8243;49.048;8.396;2023-07-22T08:06:22;3.83;;;2.70;;
16270;SDS011;8243;49.048;8.396;2023-07-22T08:08:48;4.20;;;2.70;;
16270;SDS011;8243;49.048;8.396;2023-07-22T08:11:14;2.40;;;2.20;;
16270;SDS011;8243;49.048;8.396;2023-07-22T08:13:40;3.10;;;2.07;;
16270;SDS011;8243;49.048;8.396;2023-07-22T08:16:07;2.57;;;2.23;;
16270;SDS011;8243;49.048;8.396;2023-07-22T08:18:34;2.20;;;2.00;;
16270;SDS011;8243;49.048;8.396;2023-07-22T08:21:01;3.43;;;2.30;;
16270;SDS011;8243;49.048;8.396;2023-07-22T08:23:31;4.67;;;2.30;;
16270;SDS011;8243;49.048;8.396;2023-07-22T08:25:56;2.93;;;2.20;;
16270;SDS011;8243;49.048;8.396;2023-07-22T08:28:22;3.40;;;2.20;;
16270;SDS011;8243;49.048;8.396;2023-07-22T08:30:48;2.37;;;2.13;;
16270;SDS011;8243;49.048;8.396;2023-07-22T08:33:14;2.43;;;2.23;;
16270;SDS011;8243;49.048;8.396;2023-07-22T08:35:41;3.10;;;1.80;;
16270;SDS011;8243;49.048;8.396;2023-07-22T08:38:07;3.23;;;2.00;;
16270;SDS011;8243;49.048;8.396;2023-07-22T08:40:37;2.77;;;1.70;;
16270;SDS011;8243;49.048;8.396;2023-07-22T08:43:05;2.37;;;2.00;;
16270;SDS011;8243;49.048;8.396;2023-07-22T08:45:34;3.70;;;1.97;;
16270;SDS011;8243;49.048;8.396;2023-07-22T08:48:08;2.80;;;2.10;;
16270;SDS011;8243;49.048;8.396;2023-07-22T08:50:44;2.00;;;1.90;;
16270;SDS011;8243;49.048;8.396;2023-07-22T08:53:12;3.83;;;1.60;;
16270;SDS011;8243;49.048;8.396;2023-07-22T08:55:38;2.13;;;1.93;;
16270;SDS011;8243;49.048;8.396;2023-07-22T08:58:10;1.80;;;1.70;;
16270;SDS011;8243;49.048;8.396;2023-07-22T09:00:37;2.03;;;1.93;;
16270;SDS011;8243;49.048;8.396;2023-07-22T09:03:04;3.47;;;2.00;;
16270;SDS011;8243;49.048;8.396;2023-07-22T09:05:34;2.43;;;2.10;;
16270;SDS011;8243;49.048;8.396;2023-07-22T09:08:03;1.97;;;1.80;;
16270;SDS011;8243;49.048;8.396;2023-07-22T09:10:33;3.07;;;1.90;;
16270;SDS011;8243;49.048;8.396;2023-07-22T09:12:59;3.70;;;1.90;;
16270;SDS011;8243;49.048;8.396;2023-07-22T09:15:26;2.20;;;2.00;;
16270;SDS011;8243;49.048;8.396;2023-07-22T09:17:52;2.73;;;2.03;;
16270;SDS011;8243;49.048;8.396;2023-07-22T09:20:19;2.33;;;2.13;;
16270;SDS011;8243;49.048;8.396;2023-07-22T09:22:48;4.73;;;2.10;;
16270;SDS011;8243;49.048;8.396;2023-07-22T09:27:52;2.53;;;1.70;;
16270;SDS011;8243;49.048;8.396;2023-07-22T09:30:25;2.50;;;1.93;;
16270;SDS011;8243;49.048;8.396;2023-07-22T09:32:52;2.17;;;1.97;;
16270;SDS011;8243;49.048;8.396;2023-07-22T09:35:25;4.07;;;2.17;;
16270;SDS011;8243;49.048;8.396;2023-07-22T09:37:52;1.70;;;1.60;;
16270;SDS011;8243;49.048;8.396;2023-07-22T09:40:19;2.10;;;1.90;;
16270;SDS011;8243;49.048;8.396;2023-07-22T09:42:53;2.10;;;1.70;;
16270;SDS011;8243;49.048;8.396;2023-07-22T09:45:23;2.50;;;1.90;;
16270;SDS011;8243;49.048;8.396;2023-07-22T09:47:52;3.40;;;1.80;;
16270;SDS011;8243;49.048;8.396;2023-07-22T09:50:20;2.27;;;1.80;;
16270;SDS011;8243;49.048;8.396;2023-07-22T09:52:50;1.67;;;1.57;;
16270;SDS011;8243;49.048;8.396;2023-07-22T09:55:18;1.77;;;1.67;;
16270;SDS011;8243;49.048;8.396;2023-07-22T09:57:58;2.50;;;1.70;;
16270;SDS011;8243;49.048;8.396;2023-07-22T10:00:28;2.53;;;1.90;;
16270;SDS011;8243;49.048;8.396;2023-07-22T10:02:59;3.67;;;1.80;;
16270;SDS011;8243;49.048;8.396;2023-07-22T10:05:26;4.40;;;1.97;;
16270;SDS011;8243;49.048;8.396;2023-07-22T10:07:57;2.03;;;1.83;;
16270;SDS011;8243;49.048;8.396;2023-07-22T10:10:25;3.07;;;1.83;;
16270;SDS011;8243;49.048;8.396;2023-07-22T10:12:59;2.03;;;1.83;;
16270;SDS011;8243;49.048;8.396;2023-07-22T10:15:25;1.70;;;1.60;;
16270;SDS011;8243;49.048;8.396;2023-07-22T10:17:53;2.17;;;1.90;;
16270;SDS011;8243;49.048;8.396;2023-07-22T10:20:20;4.20;;;1.90;;
16270;SDS011;8243;49.048;8.396;2023-07-22T10:22:48;3.17;;;1.70;;
16270;SDS011;8243;49.048;8.396;2023-07-22T10:25:15;2.10;;;1.90;;
16270;SDS011;8243;49.048;8.396;2023-07-22T10:27:45;2.30;;;1.90;;
16270;SDS011;8243;49.048;8.396;2023-07-22T10:30:12;1.80;;;1.70;;
16270;SDS011;8243;49.048;8.396;2023-07-22T10:32:39;3.10;;;1.70;;
16270;SDS011;8243;49.048;8.396;2023-07-22T10:35:09;1.90;;;1.80;;
16270;SDS011;8243;49.048;8.396;2023-07-22T10:37:37;2.47;;;1.90;;
16270;SDS011;8243;49.048;8.396;2023-07-22T10:42:51;2.00;;;1.80;;
16270;SDS011;8243;49.048;8.396;2023-07-22T10:45:31;2.23;;;1.90;;
16270;SDS011;8243;49.048;8.396;2023-07-22T10:50:58;1.90;;;1.70;;
16270;SDS011;8243;49.048;8.396;2023-07-22T10:53:30;3.03;;;1.80;;
16270;SDS011;8243;49.048;8.396;2023-07-22T10:56:02;3.10;;;1.80;;
16270;SDS011;8243;49.048;8.396;2023-07-22T10:58:32;4.73;;;1.70;;
16270;SDS011;8243;49.048;8.396;2023-07-22T11:06:38;2.13;;;1.80;;
16270;SDS011;8243;49.048;8.396;2023-07-22T11:11:52;3.90;;;1.80;;
16270;SDS011;8243;49.048;8.396;2023-07-22T11:14:38;4.57;;;1.83;;
16270;SDS011;8243;49.048;8.396;2023-07-22T11:17:06;1.90;;;1.70;;
16270;SDS011;8243;49.048;8.396;2023-07-22T11:19:36;2.63;;;1.80;;
16270;SDS011;8243;49.048;8.396;2023-07-22T11:22:10;2.10;;;1.90;;
16270;SDS011;8243;49.048;8.396;2023-07-22T11:24:36;2.67;;;1.80;;
16270;SDS011;8243;49.048;8.396;2023-07-22T11:27:03;1.90;;;1.80;;
16270;SDS011;8243;49.048;8.396;2023-07-22T11:29:30;3.40;;;1.80;;
16270;SDS011;8243;49.048;8.396;2023-07-22T11:31:56;4.20;;;1.60;;
16270;SDS011;8243;49.048;8.396;2023-07-22T11:34:22;1.80;;;1.67;;
16270;SDS011;8243;49.048;8.396;2023-07-22T11:36:50;1.50;;;1.40;;
16270;SDS011;8243;49.048;8.396;2023-07-22T11:39:17;4.70;;;1.77;;
16270;SDS011;8243;49.048;8.396;2023-07-22T11:41:44;2.10;;;1.90;;
16270;SDS011;8243;49.048;8.396;2023-07-22T11:44:11;2.10;;;1.43;;
16270;SDS011;8243;49.048;8.396;2023-07-22T11:46:57;7.20;;;1.77;;
16270;SDS011;8243;49.048;8.396;2023-07-22T11:52:08;2.07;;;1.67;;
16270;SDS011;8243;49.048;8.396;2023-07-22T11:54:38;2.77;;;1.67;;
16270;SDS011;8243;49.048;8.396;2023-07-22T11:57:09;3.30;;;1.60;;
16270;SDS011;8243;49.048;8.396;2023-07-22T11:59:52;2.50;;;2.00;;
16270;SDS011;8243;49.048;8.396;2023-07-22T12:02:20;2.37;;;1.70;;
16270;SDS011;8243;49.048;8.396;2023-07-22T12:04:53;1.57;;;1.47;;
16270;SDS011;8243;49.048;8.396;2023-07-22T12:07:23;1.97;;;1.73;;
16270;SDS011;8243;49.048;8.396;2023-07-22T12:09:50;3.53;;;1.70;;
16270;SDS011;8243;49.048;8.396;2023-07-22T12:12:17;3.73;;;1.80;;
16270;SDS011;8243;49.048;8.396;2023-07-22T12:14:42;1.53;;;1.43;;
16270;SDS011;8243;49.048;8.396;2023-07-22T12:17:08;1.73;;;1.63;;
16270;SDS011;8243;49.048;8.396;2023-07-22T12:19:36;5.00;;;2.00;;
16270;SDS011;8243;49.048;8.396;2023-07-22T12:22:02;2.23;;;1.70;;
16270;SDS011;8243;49.048;8.396;2023-07-22T12:24:28;3.23;;;1.40;;
16270;SDS011;8243;49.048;8.396;2023-07-22T12:26:54;2.73;;;1.70;;
16270;SDS011;8243;49.048;8.396;2023-07-22T12:29:20;3.30;;;1.50;;
16270;SDS011;8243;49.048;8.396;2023-07-22T12:31:47;3.07;;;1.70;;
16270;SDS011;8243;49.048;8.396;2023-07-22T12:34:12;2.83;;;1.80;;
16270;SDS011;8243;49.048;8.396;2023-07-22T12:36:38;3.73;;;1.53;;
16270;SDS011;8243;49.048;8.396;2023-07-22T12:39:04;2.23;;;1.60;;
16270;SDS011;8243;49.048;8.396;2023-07-22T12:41:30;2.20;;;1.67;;
16270;SDS011;8243;49.048;8.396;2023-07-22T12:43:55;2.13;;;1.50;;
16270;SDS011;8243;49.048;8.396;2023-07-22T12:46:21;1.73;;;1.63;;
16270;SDS011;8243;49.048;8.396;2023-07-22T12:48:46;2.30;;;1.40;;
16270;SDS011;8243;49.048;8.396;2023-07-22T12:51:12;5.93;;;2.30;;
16270;SDS011;8243;49.048;8.396;2023-07-22T12:53:38;2.87;;;1.57;;
16270;SDS011;8243;49.048;8.396;2023-07-22T12:56:04;2.10;;;1.80;;
16270;SDS011;8243;49.048;8.396;2023-07-22T12:58:31;3.00;;;2.10;;
16270;SDS011;8243;49.048;8.396;2023-07-22T13:00:56;1.77;;;1.60;;
16270;SDS011;8243;49.048;8.396;2023-07-22T13:03:23;1.83;;;1.50;;
16270;SDS011;8243;49.048;8.396;2023-07-22T13:05:50;4.47;;;1.87;;
16270;SDS011;8243;49.048;8.396;2023-07-22T13:08:15;2.27;;;1.80;;
16270;SDS011;8243;49.048;8.396;2023-07-22T13:10:41;3.37;;;1.67;;
16270;SDS011;8243;49.048;8.396;2023-07-22T13:13:09;1.83;;;1.70;;
16270;SDS011;8243;49.048;8.396;2023-07-22T13:15:35;1.83;;;1.67;;
16270;SDS011;8243;49.048;8.396;2023-07-22T13:18:01;1.87;;;1.77;;
16270;SDS011;8243;49.048;8.396;2023-07-22T13:20:27;2.10;;;1.90;;
16270;SDS011;8243;49.048;8.396;2023-07-22T13:22:54;3.30;;;1.90;;
16270;SDS011;8243;49.048;8.396;2023-07-22T13:25:20;2.87;;;1.80;;
16270;SDS011;8243;49.048;8.396;2023-07-22T13:27:46;2.13;;;1.80;;
16270;SDS011;8243;49.048;8.396;2023-07-22T13:30:11;1.67;;;1.57;;
16270;SDS011;8243;49.048;8.396;2023-07-22T13:32:37;2.30;;;2.10;;
16270;SDS011;8243;49.048;8.396;2023-07-22T13:35:02;2.73;;;2.17;;
16270;SDS011;8243;49.048;8.396;2023-07-22T13:37:29;2.97;;;2.17;;
16270;SDS011;8243;49.048;8.396;2023-07-22T13:39:55;2.53;;;2.00;;
16270;SDS011;8243;49.048;8.396;2023-07-22T13:42:22;2.10;;;1.90;;
16270;SDS011;8243;49.048;8.396;2023-07-22T13:44:48;2.10;;;2.00;;
16270;SDS011;8243;49.048;8.396;2023-07-22T13:47:14;1.70;;;1.60;;
16270;SDS011;8243;49.048;8.396;2023-07-22T13:49:39;2.90;;;1.93;;
16270;SDS011;8243;49.048;8.396;2023-07-22T13:52:05;2.10;;;1.87;;
16270;SDS011;8243;49.048;8.396;2023-07-22T13:54:30;4.13;;;2.10;;
16270;SDS011;8243;49.048;8.396;2023-07-22T13:56:56;2.87;;;2.43;;
16270;SDS011;8243;49.048;8.396;2023-07-22T13:59:21;2.43;;;2.10;;
16270;SDS011;8243;49.048;8.396;2023-07-22T14:01:47;2.30;;;2.10;;
16270;SDS011;8243;49.048;8.396;2023-07-22T14:04:13;2.13;;;1.90;;
16270;SDS011;8243;49.048;8.396;2023-07-22T14:06:39;2.40;;;2.20;;
16270;SDS011;8243;49.048;8.396;2023-07-22T14:09:04;3.67;;;2.03;;
16270;SDS011;8243;49.048;8.396;2023-07-22T14:11:30;2.20;;;2.00;;
16270;SDS011;8243;49.048;8.396;2023-07-22T14:13:56;2.20;;;2.00;;
16270;SDS011;8243;49.048;8.396;2023-07-22T14:16:21;2.90;;;2.10;;
16270;SDS011;8243;49.048;8.396;2023-07-22T14:18:47;3.93;;;2.10;;
16270;SDS011;8243;49.048;8.396;2023-07-22T14:21:14;2.50;;;2.20;;
16270;SDS011;8243;49.048;8.396;2023-07-22T14:23:40;2.00;;;1.73;;
16270;SDS011;8243;49.048;8.396;2023-07-22T14:26:05;2.17;;;2.00;;
16270;SDS011;8243;49.048;8.396;2023-07-22T14:28:31;2.93;;;2.27;;
16270;SDS011;8243;49.048;8.396;2023-07-22T14:30:57;4.70;;;2.50;;
16270;SDS011;8243;49.048;8.396;2023-07-22T14:33:22;2.23;;;2.03;;
16270;SDS011;8243;49.048;8.396;2023-07-22T14:35:49;2.10;;;1.80;;
16270;SDS011;8243;49.048;8.396;2023-07-22T14:38:15;3.37;;;2.37;;
16270;SDS011;8243;49.048;8.396;2023-07-22T14:40:40;5.50;;;2.10;;
16270;SDS011;8243;49.048;8.396;2023-07-22T14:43:06;3.07;;;2.60;;
16270;SDS011;8243;49.048;8.396;2023-07-22T14:45:32;4.90;;;2.37;;
16270;SDS011;8243;49.048;8.396;2023-07-22T14:47:57;2.53;;;2.30;;
16270;SDS011;8243;49.048;8.396;2023-07-22T14:50:23;2.40;;;2.20;;
16270;SDS011;8243;49.048;8.396;2023-07-22T14:52:51;3.80;;;2.30;;
16270;SDS011;8243;49.048;8.396;2023-07-22T14:55:25;4.83;;;2.57;;
16270;SDS011;8243;49.048;8.396;2023-07-22T14:57:50;3.27;;;2.47;;
16270;SDS011;8243;49.048;8.396;2023-07-22T15:00:16;6.10;;;2.70;;
16270;SDS011;8243;49.048;8.396;2023-07-22T15:02:43;3.20;;;2.40;;
16270;SDS011;8243;49.048;8.396;2023-07-22T15:05:08;3.43;;;2.20;;
16270;SDS011;8243;49.048;8.396;2023-07-22T15:07:34;3.43;;;2.70;;
16270;SDS011;8243;49.048;8.396;2023-07-22T15:10:00;2.87;;;2.57;;
16270;SDS011;8243;49.048;8.396;2023-07-22T15:12:25;2.57;;;2.37;;
16270;SDS011;8243;49.048;8.396;2023-07-22T15:14:51;4.33;;;2.47;;
16270;SDS011;8243;49.048;8.396;2023-07-22T15:17:18;4.10;;;2.50;;
16270;SDS011;8243;49.048;8.396;2023-07-22T15:19:44;2.93;;;2.60;;
16270;SDS011;8243;49.048;8.396;2023-07-22T15:22:14;3.63;;;2.60;;
16270;SDS011;8243;49.048;8.396;2023-07-22T15:24:40;2.90;;;2.60;;
16270;SDS011;8243;49.048;8.396;2023-07-22T15:27:05;3.33;;;2.43;;
16270;SDS011;8243;49.048;8.396;2023-07-22T15:29:31;2.50;;;2.30;;
16270;SDS011;8243;49.048;8.396;2023-07-22T15:31:56;3.60;;;2.30;;